Bassano, Canada
Current Conditions -  °F | °C
As of 1:00 AM on Tuesday 21 Oct 2014 (Local Time) from CYYC Reporting Station
Few Clouds Few Clouds  
Wind Chill: 50°   Ceiling: Unl
Heat Index: 50°   Visibility: 15mi
Dew Point: 32°   Wind: 6mph
Humidity: 50%   Direction: 130°SE
Pressure: 29.6"   Gusts: NA
Location:  50.78°N, 112.47°W
Report Text: CYYC 210700Z 13005KT 15SM FEW230 10/00 A2960 RMK CI1 SLP020 DENSITY ALT 4200FT
Loading
Personal Weather Stations






























Interactive Weather Map New forecast layout! Learn more

10-Day Weather Forecast

Advertisements
Track Severe Weather on mobile